createdAt,value
2018-05-14T00:01:01.954Z,17.10
2018-05-14T00:05:57.815Z,18.27
2018-05-14T00:10:53.711Z,18.97
2018-05-14T00:15:49.588Z,18.27
2018-05-14T00:20:45.454Z,17.90
2018-05-14T00:25:41.353Z,15.67
2018-05-14T00:30:37.257Z,17.63
2018-05-14T00:35:33.104Z,18.10
2018-05-14T00:40:28.951Z,17.80
2018-05-14T00:45:24.804Z,18.20
2018-05-14T00:50:20.673Z,18.53
2018-05-14T00:55:16.574Z,17.50
2018-05-14T01:00:12.477Z,16.27
2018-05-14T01:05:08.406Z,15.73
2018-05-14T01:10:04.274Z,18.60
2018-05-14T01:15:00.138Z,16.93
2018-05-14T01:19:55.983Z,16.57
2018-05-14T01:24:58.937Z,16.23
2018-05-14T01:29:54.787Z,15.50
2018-05-14T01:34:50.659Z,16.33
2018-05-14T01:39:46.561Z,16.90
2018-05-14T01:44:42.415Z,15.80
2018-05-14T01:49:38.391Z,15.73
2018-05-14T01:54:34.236Z,15.77
2018-05-14T01:59:30.106Z,15.93
2018-05-14T02:04:25.964Z,13.50
2018-05-14T02:09:21.802Z,12.80
2018-05-14T02:14:17.647Z,13.90
2018-05-14T02:19:13.522Z,12.33
2018-05-14T02:24:09.383Z,13.07
2018-05-14T02:29:05.281Z,13.67
2018-05-14T02:34:01.159Z,14.40
2018-05-14T02:38:57.032Z,13.57
2018-05-14T02:43:53.108Z,15.27
2018-05-14T02:48:49.065Z,16.07
2018-05-14T02:53:44.964Z,16.37
2018-05-14T02:58:40.808Z,16.53
2018-05-14T03:03:36.689Z,17.40
2018-05-14T03:08:32.540Z,18.17
2018-05-14T03:13:28.396Z,19.00
2018-05-14T03:18:24.289Z,19.17
2018-05-14T03:23:21.022Z,19.47
2018-05-14T03:28:16.911Z,21.20
2018-05-14T03:33:12.771Z,21.93
2018-05-14T03:38:08.650Z,21.67
2018-05-14T03:43:04.510Z,21.47
2018-05-14T03:48:00.347Z,19.43
2018-05-14T03:52:56.179Z,23.73
2018-05-14T03:57:52.041Z,20.60
2018-05-14T04:02:54.118Z,23.17
2018-05-14T04:07:49.990Z,22.87
2018-05-14T04:12:45.888Z,23.90
2018-05-14T04:17:41.737Z,22.73
2018-05-14T04:22:37.617Z,23.97
2018-05-14T04:27:33.476Z,25.20
2018-05-14T04:32:29.329Z,27.40
2018-05-14T04:37:25.229Z,24.50
2018-05-14T04:42:21.117Z,23.77
2018-05-14T04:47:16.990Z,23.37
2018-05-14T04:52:12.917Z,25.15
2018-05-14T04:57:08.750Z,23.10
2018-05-14T05:02:04.679Z,23.37
2018-05-14T05:07:00.603Z,21.60
2018-05-14T05:11:56.474Z,23.90
2018-05-14T05:16:52.333Z,24.37
2018-05-14T05:21:48.228Z,22.07
2018-05-14T05:26:44.079Z,22.40
2018-05-14T05:31:40.091Z,22.80
2018-05-14T05:36:35.979Z,22.70
2018-05-14T05:41:31.862Z,19.77
2018-05-14T05:46:28.782Z,19.67
2018-05-14T05:51:24.663Z,19.20
2018-05-14T05:56:20.536Z,16.97
2018-05-14T06:01:16.512Z,19.77
2018-05-14T06:06:12.303Z,15.07
2018-05-14T06:11:08.168Z,14.17
2018-05-14T06:16:04.032Z,11.87
2018-05-14T06:20:59.921Z,13.07
2018-05-14T06:25:55.814Z,12.90
2018-05-14T06:30:51.658Z,10.83
2018-05-14T06:35:47.555Z,11.80
2018-05-14T06:40:43.442Z,9.53
2018-05-14T06:45:39.345Z,9.57
2018-05-14T06:50:35.194Z,9.13
2018-05-14T06:55:31.077Z,11.87
2018-05-14T07:00:26.978Z,9.55
2018-05-14T07:05:22.822Z,9.82
2018-05-14T07:10:18.695Z,8.55
2018-05-14T07:15:14.581Z,12.23
2018-05-14T07:20:10.444Z,7.50
2018-05-14T07:25:06.341Z,12.73
2018-05-14T07:30:02.221Z,8.77
2018-05-14T07:34:58.123Z,9.85
2018-05-14T07:39:54.013Z,11.02
2018-05-14T07:44:50.068Z,11.98
2018-05-14T07:49:45.752Z,9.38
2018-05-14T07:54:41.651Z,9.75
2018-05-14T07:59:37.518Z,7.85
2018-05-14T08:04:33.404Z,9.25
2018-05-14T08:09:29.328Z,7.93
2018-05-14T08:14:25.190Z,8.50
2018-05-14T08:19:21.091Z,7.93
2018-05-14T08:24:16.954Z,5.18
2018-05-14T08:29:12.847Z,6.68
2018-05-14T08:34:08.693Z,5.22
2018-05-14T08:39:04.606Z,6.85
2018-05-14T08:44:00.503Z,4.60
2018-05-14T08:48:56.351Z,4.05
2018-05-14T08:53:52.227Z,9.68
2018-05-14T08:58:48.120Z,4.18
2018-05-14T09:03:43.987Z,6.10
2018-05-14T09:08:39.899Z,4.32
2018-05-14T09:13:35.853Z,6.78
2018-05-14T09:18:31.789Z,4.87
2018-05-14T09:23:27.651Z,3.72
2018-05-14T09:28:23.532Z,6.18
2018-05-14T09:33:19.431Z,3.22
2018-05-14T09:38:15.337Z,10.48
2018-05-14T09:43:11.242Z,8.88
2018-05-14T09:48:07.113Z,4.53
2018-05-14T09:53:02.990Z,6.40
2018-05-14T09:57:58.891Z,5.60
2018-05-14T10:02:54.762Z,5.20
2018-05-14T10:07:50.672Z,4.62
2018-05-14T10:12:46.514Z,6.75
2018-05-14T10:17:42.409Z,7.53
2018-05-14T10:22:38.329Z,4.43
2018-05-14T10:27:34.247Z,13.17
2018-05-14T10:32:30.093Z,12.37
2018-05-14T10:37:26.020Z,6.75
2018-05-14T10:42:21.926Z,5.40
2018-05-14T10:47:17.767Z,6.07
2018-05-14T10:52:13.682Z,8.65
2018-05-14T10:57:09.540Z,3.87
2018-05-14T11:02:05.425Z,3.50
2018-05-14T11:07:01.332Z,6.03
2018-05-14T11:11:57.209Z,4.05
2018-05-14T11:16:53.105Z,4.28
2018-05-14T11:21:48.959Z,5.30
2018-05-14T11:26:44.831Z,7.62
2018-05-14T11:31:40.748Z,4.50
2018-05-14T11:36:36.648Z,5.72
2018-05-14T11:41:32.512Z,6.70
2018-05-14T11:46:28.373Z,3.95
2018-05-14T11:51:24.220Z,7.40
2018-05-14T11:56:20.100Z,5.80
2018-05-14T12:01:15.997Z,4.22
2018-05-14T12:06:11.913Z,6.53
2018-05-14T12:11:07.811Z,4.25
2018-05-14T12:16:03.758Z,4.75
2018-05-14T12:20:59.660Z,5.15
2018-05-14T12:25:55.593Z,6.47
2018-05-14T12:30:51.470Z,8.23
2018-05-14T12:35:47.368Z,4.60
2018-05-14T12:40:43.200Z,7.55
2018-05-14T12:45:39.075Z,4.65
2018-05-14T12:50:34.995Z,4.93
2018-05-14T12:55:30.946Z,6.12
2018-05-14T13:00:26.803Z,7.20
2018-05-14T13:05:22.688Z,6.87
2018-05-14T13:10:18.553Z,5.07
2018-05-14T13:15:14.456Z,6.45
2018-05-14T13:20:10.360Z,7.70
2018-05-14T13:25:06.263Z,5.90
2018-05-14T13:30:02.157Z,4.75
2018-05-14T13:34:58.060Z,9.52
2018-05-14T13:39:53.941Z,5.82
2018-05-14T13:44:49.820Z,6.80
2018-05-14T13:49:45.774Z,9.25
2018-05-14T13:54:41.611Z,8.80
2018-05-14T13:59:37.487Z,3.72
2018-05-14T14:04:33.360Z,6.25
2018-05-14T14:09:29.218Z,6.82
2018-05-14T14:14:25.079Z,6.80
2018-05-14T14:19:20.976Z,6.40
2018-05-14T14:24:16.919Z,7.65
2018-05-14T14:29:12.724Z,8.73
2018-05-14T14:34:08.601Z,9.02
2018-05-14T14:39:04.508Z,8.07
2018-05-14T14:44:00.372Z,8.77
2018-05-14T14:48:56.222Z,7.53
2018-05-14T14:53:52.131Z,12.93
2018-05-14T14:58:48.031Z,10.07
2018-05-14T15:03:43.906Z,7.80
2018-05-14T15:08:39.842Z,11.55
2018-05-14T15:13:35.647Z,6.93
2018-05-14T15:18:31.568Z,5.72
2018-05-14T15:23:27.446Z,7.78
2018-05-14T15:28:23.303Z,6.65
2018-05-14T15:33:19.166Z,12.73
2018-05-14T15:38:15.071Z,6.62
2018-05-14T15:43:10.956Z,12.05
2018-05-14T15:48:06.840Z,7.75
2018-05-14T15:53:02.736Z,6.12
2018-05-14T15:57:58.623Z,7.20
2018-05-14T16:02:54.543Z,4.70
2018-05-14T16:07:50.400Z,4.60
2018-05-14T16:12:46.311Z,7.00
2018-05-14T16:17:42.175Z,52.97
2018-05-14T16:22:38.021Z,6.97
2018-05-14T16:27:33.908Z,7.28
2018-05-14T16:32:29.791Z,9.60
2018-05-14T16:37:25.649Z,12.10
2018-05-14T16:42:21.599Z,6.00
2018-05-14T16:47:17.483Z,5.03
2018-05-14T16:52:13.389Z,7.68
2018-05-14T16:57:09.265Z,7.32
2018-05-14T17:02:05.158Z,6.12
2018-05-14T17:07:01.001Z,6.20
2018-05-14T17:11:56.896Z,7.20
2018-05-14T17:16:52.782Z,6.10
2018-05-14T17:21:48.632Z,6.45
2018-05-14T17:26:44.520Z,7.57
2018-05-14T17:31:40.395Z,7.05
2018-05-14T17:36:36.297Z,10.45
2018-05-14T17:41:32.172Z,9.88
2018-05-14T17:46:28.047Z,9.88
2018-05-14T17:51:23.952Z,8.30
2018-05-14T17:56:19.820Z,9.15
2018-05-14T18:01:15.740Z,9.30
2018-05-14T18:06:11.686Z,10.25
2018-05-14T18:11:07.581Z,9.88
2018-05-14T18:16:03.449Z,7.57
2018-05-14T18:20:59.393Z,7.87
2018-05-14T18:26:01.368Z,8.05
2018-05-14T18:31:02.330Z,8.50
2018-05-14T18:35:58.192Z,6.70
2018-05-14T18:40:54.042Z,12.82
2018-05-14T18:45:49.902Z,9.35
2018-05-14T18:50:45.766Z,5.57
2018-05-14T18:55:41.647Z,11.57
2018-05-14T19:00:37.547Z,7.83
2018-05-14T19:05:33.411Z,11.38
2018-05-14T19:10:35.279Z,9.50
2018-05-14T19:15:37.183Z,6.80
2018-05-14T19:20:33.415Z,4.55
2018-05-14T19:25:29.315Z,5.12
2018-05-14T19:30:25.198Z,6.65
2018-05-14T19:35:27.445Z,4.57
2018-05-14T19:40:29.414Z,4.50
2018-05-14T19:45:25.260Z,5.30
2018-05-14T19:50:21.157Z,5.30
2018-05-14T19:55:17.313Z,7.07
2018-05-14T20:00:13.195Z,8.32
2018-05-14T20:05:09.066Z,6.20
2018-05-14T20:10:04.940Z,4.78
2018-05-14T20:15:00.834Z,6.47
2018-05-14T20:19:56.801Z,7.67
2018-05-14T20:24:53.026Z,6.83
2018-05-14T20:29:48.877Z,4.90
2018-05-14T20:34:44.787Z,4.63
2018-05-14T20:39:40.681Z,8.20
2018-05-14T20:44:36.648Z,5.67
2018-05-14T20:49:33.009Z,5.07
2018-05-14T20:54:28.868Z,4.23
2018-05-14T20:59:24.754Z,5.33
2018-05-14T21:04:20.636Z,4.27
2018-05-14T21:09:16.505Z,4.20
2018-05-14T21:14:12.399Z,3.67
2018-05-14T21:19:08.278Z,5.20
2018-05-14T21:24:04.147Z,4.27
2018-05-14T21:29:00.037Z,4.30
2018-05-14T21:33:55.875Z,5.17
2018-05-14T21:38:51.813Z,8.20
2018-05-14T21:43:47.684Z,4.50
2018-05-14T21:48:43.546Z,4.20
2018-05-14T21:53:46.531Z,4.10
2018-05-14T21:58:42.729Z,6.90
2018-05-14T22:03:38.739Z,5.20
2018-05-14T22:08:34.810Z,6.23
2018-05-14T22:13:30.859Z,3.90
2018-05-14T22:18:27.135Z,4.20
2018-05-14T22:23:23.017Z,6.03
2018-05-14T22:28:18.930Z,5.93
2018-05-14T22:33:14.778Z,4.37
2018-05-14T22:38:10.668Z,4.10
2018-05-14T22:43:06.529Z,4.17
2018-05-14T22:48:02.407Z,7.10
2018-05-14T22:52:58.286Z,5.73
2018-05-14T22:57:54.158Z,4.97
2018-05-14T23:02:50.033Z,6.00
2018-05-14T23:07:45.903Z,8.70
2018-05-14T23:12:41.823Z,5.27
2018-05-14T23:17:37.696Z,7.00
2018-05-14T23:22:39.665Z,4.73
2018-05-14T23:27:35.559Z,5.27
2018-05-14T23:32:31.463Z,4.23
2018-05-14T23:37:27.340Z,4.80
2018-05-14T23:42:23.214Z,4.53
2018-05-14T23:47:19.105Z,5.70
2018-05-14T23:52:14.977Z,5.30
2018-05-14T23:57:10.862Z,4.30
